createdAt,value
2017-08-23T00:00:30.704Z,15.67
2017-08-23T00:02:58.256Z,13.57
2017-08-23T00:05:25.796Z,17.00
2017-08-23T00:07:53.367Z,15.40
2017-08-23T00:10:20.913Z,18.53
2017-08-23T00:12:48.453Z,14.05
2017-08-23T00:15:17.270Z,15.98
2017-08-23T00:17:44.812Z,14.53
2017-08-23T00:20:12.349Z,14.87
2017-08-23T00:22:39.957Z,15.13
2017-08-23T00:25:07.509Z,19.33
2017-08-23T00:27:35.048Z,14.40
2017-08-23T00:30:02.626Z,14.43
2017-08-23T00:32:30.177Z,14.82
2017-08-23T00:34:57.730Z,16.37
2017-08-23T00:37:25.301Z,15.97
2017-08-23T00:39:52.848Z,16.03
2017-08-23T00:42:20.393Z,14.00
2017-08-23T00:44:47.993Z,13.87
2017-08-23T00:47:17.261Z,15.20
2017-08-23T00:49:44.806Z,14.17
2017-08-23T00:52:12.373Z,14.03
2017-08-23T00:54:40.525Z,14.83
2017-08-23T00:57:08.068Z,15.30
2017-08-23T00:59:35.778Z,17.97
2017-08-23T01:02:03.334Z,22.07
2017-08-23T01:04:30.885Z,18.30
2017-08-23T01:06:58.785Z,22.30
2017-08-23T01:09:26.333Z,23.60
2017-08-23T01:11:53.890Z,21.97
2017-08-23T01:14:21.478Z,20.40
2017-08-23T01:16:49.016Z,16.43
2017-08-23T01:19:16.564Z,15.93
2017-08-23T01:21:44.150Z,16.53
2017-08-23T01:24:11.694Z,22.33
2017-08-23T01:26:39.237Z,22.70
2017-08-23T01:29:06.832Z,31.53
2017-08-23T01:31:34.385Z,34.65
2017-08-23T01:34:01.930Z,33.77
2017-08-23T01:36:29.501Z,42.27
2017-08-23T01:38:57.040Z,41.33
2017-08-23T01:41:24.580Z,29.17
2017-08-23T01:43:52.140Z,25.70
2017-08-23T01:46:19.682Z,25.98
2017-08-23T01:48:47.238Z,24.17
2017-08-23T01:51:16.320Z,28.90
2017-08-23T01:53:43.877Z,30.87
2017-08-23T01:56:11.881Z,37.77
2017-08-23T01:58:39.461Z,34.80
2017-08-23T02:01:07.001Z,23.30
2017-08-23T02:03:34.546Z,22.40
2017-08-23T02:06:02.134Z,18.07
2017-08-23T02:08:29.691Z,17.75
2017-08-23T02:10:57.232Z,24.33
2017-08-23T02:13:24.848Z,19.23
2017-08-23T02:15:52.397Z,22.37
2017-08-23T02:18:19.940Z,24.37
2017-08-23T02:20:47.517Z,20.88
2017-08-23T02:23:16.445Z,17.77
2017-08-23T02:25:43.993Z,19.70
2017-08-23T02:28:11.561Z,17.70
2017-08-23T02:30:39.096Z,16.70
2017-08-23T02:33:06.645Z,17.53
2017-08-23T02:35:34.260Z,23.63
2017-08-23T02:38:01.817Z,23.03
2017-08-23T02:40:30.122Z,17.37
2017-08-23T02:42:57.694Z,17.90
2017-08-23T02:45:26.000Z,25.53
2017-08-23T02:47:53.547Z,18.40
2017-08-23T02:50:21.113Z,17.20
2017-08-23T02:52:48.657Z,20.30
2017-08-23T02:55:17.337Z,16.80
2017-08-23T02:57:45.141Z,15.97
2017-08-23T03:00:12.688Z,17.07
2017-08-23T03:02:40.225Z,16.57
2017-08-23T03:05:07.788Z,17.00
2017-08-23T03:07:35.347Z,22.60
2017-08-23T03:10:02.897Z,17.73
2017-08-23T03:12:30.465Z,19.55
2017-08-23T03:14:58.015Z,24.13
2017-08-23T03:17:25.561Z,20.25
2017-08-23T03:19:53.237Z,21.83
2017-08-23T03:22:20.784Z,17.30
2017-08-23T03:24:48.324Z,19.73
2017-08-23T03:27:18.288Z,19.97
2017-08-23T03:29:45.833Z,23.30
2017-08-23T03:32:14.585Z,19.70
2017-08-23T03:34:42.161Z,22.67
2017-08-23T03:37:09.712Z,21.17
2017-08-23T03:39:38.030Z,21.67
2017-08-23T03:42:05.641Z,18.93
2017-08-23T03:44:33.197Z,23.62
2017-08-23T03:47:00.741Z,19.33
2017-08-23T03:49:28.333Z,24.30
2017-08-23T03:51:55.889Z,18.77
2017-08-23T03:54:24.201Z,21.17
2017-08-23T03:56:51.768Z,28.40
2017-08-23T03:59:19.805Z,24.80
2017-08-23T04:01:47.352Z,20.37
2017-08-23T04:04:16.352Z,23.87
2017-08-23T04:06:44.683Z,22.60
2017-08-23T04:09:12.233Z,19.50
2017-08-23T04:11:39.808Z,25.73
2017-08-23T04:14:07.357Z,27.00
2017-08-23T04:16:34.898Z,23.67
2017-08-23T04:19:02.465Z,20.92
2017-08-23T04:21:30.030Z,22.13
2017-08-23T04:23:57.574Z,31.97
2017-08-23T04:26:25.197Z,35.27
2017-08-23T04:28:52.741Z,33.60
2017-08-23T04:31:20.295Z,29.90
2017-08-23T04:33:48.011Z,32.03
2017-08-23T04:36:16.465Z,30.98
2017-08-23T04:38:44.009Z,36.20
2017-08-23T04:41:11.580Z,33.30
2017-08-23T04:43:39.133Z,27.40
2017-08-23T04:46:06.673Z,24.50
2017-08-23T04:48:34.269Z,27.60
2017-08-23T04:51:02.580Z,26.57
2017-08-23T04:53:30.121Z,25.50
2017-08-23T04:55:57.713Z,20.33
2017-08-23T04:58:25.261Z,18.33
2017-08-23T05:00:53.240Z,18.87
2017-08-23T05:03:20.825Z,18.60
2017-08-23T05:05:48.413Z,27.23
2017-08-23T05:08:16.769Z,21.55
2017-08-23T05:10:44.377Z,23.73
2017-08-23T05:13:11.921Z,22.40
2017-08-23T05:15:40.250Z,22.98
2017-08-23T05:18:07.830Z,18.40
2017-08-23T05:20:35.368Z,21.53
2017-08-23T05:23:02.921Z,18.37
2017-08-23T05:25:30.499Z,16.90
2017-08-23T05:27:58.045Z,18.60
2017-08-23T05:30:25.592Z,25.00
2017-08-23T05:32:53.687Z,18.13
2017-08-23T05:35:21.237Z,24.57
2017-08-23T05:37:49.547Z,15.38
2017-08-23T05:40:17.125Z,20.07
2017-08-23T05:42:44.677Z,27.27
2017-08-23T05:45:12.217Z,18.53
2017-08-23T05:47:39.829Z,18.87
2017-08-23T05:50:07.376Z,22.53
2017-08-23T05:52:34.929Z,21.83
2017-08-23T05:55:03.294Z,25.90
2017-08-23T05:57:30.841Z,24.60
2017-08-23T05:59:58.389Z,25.33
2017-08-23T06:02:26.552Z,22.03
2017-08-23T06:04:54.109Z,23.50
2017-08-23T06:07:21.917Z,28.13
2017-08-23T06:09:49.529Z,19.80
2017-08-23T06:12:17.095Z,20.33
2017-08-23T06:14:44.642Z,24.50
2017-08-23T06:17:12.264Z,20.47
2017-08-23T06:19:40.577Z,20.90
2017-08-23T06:22:08.121Z,23.30
2017-08-23T06:24:35.705Z,21.90
2017-08-23T06:27:03.257Z,22.20
2017-08-23T06:29:30.811Z,25.70
2017-08-23T06:31:58.396Z,19.57
2017-08-23T06:34:25.941Z,20.90
2017-08-23T06:36:53.497Z,19.97
2017-08-23T06:39:21.194Z,19.17
2017-08-23T06:41:48.824Z,18.23
2017-08-23T06:44:16.546Z,20.30
2017-08-23T06:46:44.142Z,19.93
2017-08-23T06:49:11.697Z,18.00
2017-08-23T06:51:40.339Z,20.53
2017-08-23T06:54:07.937Z,22.80
2017-08-23T06:56:35.493Z,16.83
2017-08-23T06:59:03.037Z,19.90
2017-08-23T07:01:30.697Z,22.30
2017-08-23T07:03:58.649Z,21.23
2017-08-23T07:06:26.214Z,20.98
2017-08-23T07:08:54.752Z,14.63
2017-08-23T07:11:22.313Z,19.40
2017-08-23T07:13:49.856Z,15.60
2017-08-23T07:16:17.460Z,13.50
2017-08-23T07:18:45.017Z,14.43
2017-08-23T07:21:12.560Z,16.60
2017-08-23T07:23:40.177Z,17.20
2017-08-23T07:26:07.720Z,14.97
2017-08-23T07:28:35.265Z,17.50
2017-08-23T07:31:02.891Z,15.60
2017-08-23T07:33:30.457Z,13.23
2017-08-23T07:35:58.004Z,13.50
2017-08-23T07:38:25.594Z,12.95
2017-08-23T07:40:53.141Z,16.73
2017-08-23T07:43:21.412Z,10.60
2017-08-23T07:45:49.129Z,10.23
2017-08-23T07:48:16.673Z,16.53
2017-08-23T07:50:44.209Z,9.90
2017-08-23T07:53:11.793Z,13.53
2017-08-23T07:55:39.337Z,12.43
2017-08-23T07:58:08.301Z,12.00
2017-08-23T08:00:35.876Z,9.40
2017-08-23T08:03:03.418Z,8.87
2017-08-23T08:05:31.153Z,8.50
2017-08-23T08:07:58.750Z,8.60
2017-08-23T08:10:26.297Z,7.47
2017-08-23T08:12:53.862Z,6.43
2017-08-23T08:15:21.430Z,8.53
2017-08-23T08:17:48.964Z,6.80
2017-08-23T08:20:16.504Z,5.73
2017-08-23T08:22:44.840Z,5.13
2017-08-23T08:25:12.381Z,12.10
2017-08-23T08:27:39.913Z,7.47
2017-08-23T08:30:07.508Z,4.60
2017-08-23T08:32:35.050Z,4.40
2017-08-23T08:35:02.593Z,6.13
2017-08-23T08:37:30.158Z,4.73
2017-08-23T08:39:57.701Z,3.77
2017-08-23T08:42:25.237Z,9.15
2017-08-23T08:44:52.803Z,4.20
2017-08-23T08:47:20.340Z,5.47
2017-08-23T08:49:47.881Z,4.47
2017-08-23T08:52:16.480Z,5.55
2017-08-23T08:54:44.025Z,4.90
2017-08-23T08:57:11.566Z,7.20
2017-08-23T08:59:39.137Z,9.70
2017-08-23T09:02:06.672Z,3.90
2017-08-23T09:04:34.213Z,5.07
2017-08-23T09:07:02.018Z,4.80
2017-08-23T09:09:29.801Z,6.53
2017-08-23T09:11:57.336Z,7.55
2017-08-23T09:14:24.933Z,6.83
2017-08-23T09:16:52.490Z,4.53
2017-08-23T09:19:20.621Z,7.55
2017-08-23T09:21:48.184Z,5.93
2017-08-23T09:24:16.392Z,8.67
2017-08-23T09:26:43.932Z,3.73
2017-08-23T09:29:11.501Z,3.28
2017-08-23T09:31:39.054Z,5.40
2017-08-23T09:34:06.596Z,3.63
2017-08-23T09:36:34.957Z,4.80
2017-08-23T09:39:02.506Z,5.75
2017-08-23T09:41:30.071Z,7.97
2017-08-23T09:43:57.760Z,4.77
2017-08-23T09:46:25.307Z,3.45
2017-08-23T09:48:53.619Z,3.60
2017-08-23T09:51:21.196Z,4.85
2017-08-23T09:53:48.741Z,7.20
2017-08-23T09:56:16.428Z,3.27
2017-08-23T09:58:44.065Z,4.03
2017-08-23T10:01:11.608Z,4.45
2017-08-23T10:03:39.152Z,4.20
2017-08-23T10:06:06.721Z,3.57
2017-08-23T10:08:34.681Z,3.53
2017-08-23T10:11:02.218Z,3.83
2017-08-23T10:13:29.798Z,5.72
2017-08-23T10:15:58.113Z,4.33
2017-08-23T10:18:25.659Z,5.13
2017-08-23T10:20:53.293Z,7.30
2017-08-23T10:23:21.603Z,4.20
2017-08-23T10:25:50.046Z,5.27
2017-08-23T10:28:18.389Z,4.33
2017-08-23T10:30:45.932Z,6.37
2017-08-23T10:33:25.046Z,5.03
2017-08-23T10:38:35.645Z,5.40
2017-08-23T10:41:03.241Z,6.33
2017-08-23T10:43:30.784Z,8.95
2017-08-23T10:45:59.260Z,10.40
2017-08-23T10:48:26.918Z,11.57
2017-08-23T10:50:54.568Z,13.93
2017-08-23T10:53:40.224Z,8.13
2017-08-23T10:56:07.900Z,8.70
2017-08-23T10:58:35.457Z,8.77
2017-08-23T11:01:03.305Z,7.90
2017-08-23T11:03:31.326Z,13.90
2017-08-23T11:05:58.956Z,9.97
2017-08-23T11:08:26.545Z,8.40
2017-08-23T11:10:54.358Z,9.63
2017-08-23T11:13:22.660Z,6.00
2017-08-23T11:15:50.260Z,8.63
2017-08-23T11:18:17.793Z,8.30
2017-08-23T11:20:45.337Z,8.70
2017-08-23T11:23:24.153Z,8.68
2017-08-23T11:29:18.816Z,10.33
2017-08-23T11:31:46.389Z,8.10
2017-08-23T11:34:15.497Z,7.18
2017-08-23T11:36:43.125Z,6.90
2017-08-23T11:39:12.039Z,8.20
2017-08-23T11:41:45.380Z,7.83
2017-08-23T11:44:24.769Z,8.20
2017-08-23T11:49:44.074Z,9.70
2017-08-23T11:52:11.618Z,6.33
2017-08-23T11:54:39.162Z,6.40
2017-08-23T11:57:06.774Z,6.60
2017-08-23T11:59:34.330Z,8.77
2017-08-23T12:02:02.637Z,8.37
2017-08-23T12:04:30.261Z,13.00
2017-08-23T12:06:58.578Z,7.33
2017-08-23T12:09:26.121Z,7.37
2017-08-23T12:11:53.998Z,12.77
2017-08-23T12:14:21.549Z,9.17
2017-08-23T12:16:49.094Z,10.53
2017-08-23T12:19:17.488Z,8.07
2017-08-23T12:21:45.045Z,7.23
2017-08-23T12:24:12.643Z,11.57
2017-08-23T12:26:40.246Z,6.10
2017-08-23T12:29:07.837Z,35.77
2017-08-23T12:31:35.511Z,7.93
2017-08-23T12:34:03.115Z,7.83
2017-08-23T12:36:30.674Z,5.87
2017-08-23T12:38:58.244Z,10.27
2017-08-23T12:41:25.870Z,8.80
2017-08-23T12:43:53.427Z,7.45
2017-08-23T12:46:20.984Z,7.83
2017-08-23T12:48:48.574Z,5.53
2017-08-23T12:51:16.423Z,11.67
2017-08-23T12:53:43.997Z,13.43
2017-08-23T12:56:11.606Z,8.85
2017-08-23T12:58:39.162Z,7.23
2017-08-23T13:01:06.745Z,6.13
2017-08-23T13:03:34.514Z,8.70
2017-08-23T13:06:02.104Z,9.80
2017-08-23T13:08:29.754Z,17.50
2017-08-23T13:10:57.496Z,7.60
2017-08-23T13:13:26.548Z,7.83
2017-08-23T13:15:54.130Z,9.23
2017-08-23T13:18:22.153Z,9.90
2017-08-23T13:20:49.732Z,7.93
2017-08-23T13:23:17.318Z,13.50
2017-08-23T13:25:44.981Z,11.90
2017-08-23T13:28:13.330Z,16.80
2017-08-23T13:30:40.934Z,10.30
2017-08-23T13:33:08.514Z,9.65
2017-08-23T13:35:36.178Z,15.10
2017-08-23T13:38:03.757Z,10.27
2017-08-23T13:40:31.416Z,10.97
2017-08-23T13:42:58.969Z,8.83
2017-08-23T13:45:26.585Z,9.27
2017-08-23T13:47:54.198Z,11.73
2017-08-23T13:50:21.775Z,8.23
2017-08-23T13:52:49.340Z,9.93
2017-08-23T13:55:16.948Z,10.13
2017-08-23T13:57:44.545Z,13.13
2017-08-23T14:00:12.200Z,12.80
2017-08-23T14:02:39.785Z,9.07
2017-08-23T14:05:07.409Z,6.60
2017-08-23T14:07:34.982Z,7.20
2017-08-23T14:10:02.602Z,9.60
2017-08-23T14:12:30.184Z,7.63
2017-08-23T14:14:58.257Z,10.40
2017-08-23T14:17:25.903Z,13.60
2017-08-23T14:19:53.469Z,7.83
2017-08-23T14:22:21.038Z,9.77
2017-08-23T14:24:48.627Z,16.03
2017-08-23T14:27:16.420Z,7.87
2017-08-23T14:29:43.985Z,8.40
2017-08-23T14:32:11.718Z,8.20
2017-08-23T14:34:39.269Z,8.53
2017-08-23T14:37:06.830Z,7.97
2017-08-23T14:39:34.973Z,9.33
2017-08-23T14:42:02.546Z,9.13
2017-08-23T14:44:30.114Z,7.70
2017-08-23T14:46:57.721Z,6.23
2017-08-23T14:49:25.269Z,10.00
2017-08-23T14:51:52.825Z,8.57
2017-08-23T14:54:22.166Z,7.80
2017-08-23T14:56:49.725Z,9.30
2017-08-23T14:59:17.260Z,7.83
2017-08-23T15:01:44.905Z,6.33
2017-08-23T15:04:12.476Z,7.72
2017-08-23T15:06:40.033Z,6.00
2017-08-23T15:09:07.608Z,5.90
2017-08-23T15:11:35.149Z,6.37
2017-08-23T15:14:02.689Z,9.37
2017-08-23T15:16:30.817Z,10.90
2017-08-23T15:18:58.361Z,9.83
2017-08-23T15:21:25.913Z,6.97
2017-08-23T15:23:55.290Z,5.33
2017-08-23T15:26:23.738Z,6.50
2017-08-23T15:28:51.282Z,7.10
2017-08-23T15:31:18.857Z,10.60
2017-08-23T15:33:46.399Z,12.97
2017-08-23T15:36:16.345Z,8.55
2017-08-23T15:38:43.981Z,15.60
2017-08-23T15:41:12.261Z,6.70
2017-08-23T15:43:39.797Z,7.10
2017-08-23T15:46:07.391Z,8.13
2017-08-23T15:48:35.071Z,7.53
2017-08-23T15:51:02.653Z,8.70
2017-08-23T15:53:30.233Z,11.93
2017-08-23T15:55:57.805Z,9.40
2017-08-23T15:58:26.135Z,7.03
2017-08-23T16:00:53.741Z,9.50
2017-08-23T16:03:22.046Z,21.85
2017-08-23T16:05:49.677Z,12.10
2017-08-23T16:08:18.029Z,8.87
2017-08-23T16:10:45.672Z,10.23
2017-08-23T16:13:14.561Z,17.48
2017-08-23T16:15:42.142Z,7.03
2017-08-23T16:18:10.117Z,10.83
2017-08-23T16:20:37.681Z,9.53
2017-08-23T16:23:05.399Z,8.30
2017-08-23T16:25:33.014Z,15.70
2017-08-23T16:28:00.553Z,8.47
2017-08-23T16:30:28.163Z,15.97
2017-08-23T16:32:55.823Z,7.97
2017-08-23T16:35:23.367Z,8.40
2017-08-23T16:37:50.950Z,13.17
2017-08-23T16:40:18.506Z,12.93
2017-08-23T16:42:46.335Z,9.43
2017-08-23T16:45:26.922Z,11.63
2017-08-23T16:52:10.502Z,8.77
2017-08-23T16:54:38.046Z,10.97
2017-08-23T16:57:05.597Z,10.63
2017-08-23T16:59:33.934Z,9.70
2017-08-23T17:02:02.636Z,10.93
2017-08-23T17:04:30.185Z,9.65
2017-08-23T17:06:57.782Z,8.97
2017-08-23T17:09:26.090Z,7.80
2017-08-23T17:11:53.635Z,11.53
2017-08-23T17:14:21.219Z,10.63
2017-08-23T17:16:48.766Z,9.60
2017-08-23T17:19:16.746Z,9.73
2017-08-23T17:21:44.325Z,9.83
2017-08-23T17:24:11.877Z,8.60
2017-08-23T17:26:39.459Z,16.58
2017-08-23T17:29:07.086Z,8.47
2017-08-23T17:31:34.644Z,14.77
2017-08-23T17:34:02.357Z,10.07
2017-08-23T17:36:31.017Z,9.07
2017-08-23T17:38:58.607Z,15.27
2017-08-23T17:41:26.149Z,11.68
2017-08-23T17:43:53.808Z,12.53
2017-08-23T17:46:21.405Z,9.02
2017-08-23T17:48:48.950Z,15.37
2017-08-23T17:51:16.548Z,8.68
2017-08-23T17:53:44.093Z,14.63
2017-08-23T17:56:11.650Z,17.23
2017-08-23T17:58:39.225Z,13.40
2017-08-23T18:01:06.769Z,11.43
2017-08-23T18:03:34.416Z,14.70
2017-08-23T18:06:01.993Z,16.90
2017-08-23T18:08:29.558Z,12.60
2017-08-23T18:10:57.144Z,17.23
2017-08-23T18:13:24.754Z,17.47
2017-08-23T18:15:52.297Z,12.93
2017-08-23T18:18:19.995Z,11.68
2017-08-23T18:20:48.182Z,15.23
2017-08-23T18:23:16.489Z,18.57
2017-08-23T18:25:44.129Z,14.90
2017-08-23T18:28:11.720Z,10.90
2017-08-23T18:30:39.333Z,13.80
2017-08-23T18:33:06.987Z,11.43
2017-08-23T18:35:34.627Z,15.20
2017-08-23T18:38:02.184Z,18.87
2017-08-23T18:40:29.779Z,15.70
2017-08-23T18:42:57.395Z,14.30
2017-08-23T18:45:24.986Z,16.03
2017-08-23T18:47:52.525Z,23.10
2017-08-23T18:50:20.105Z,26.02
2017-08-23T18:52:47.713Z,14.20
2017-08-23T18:55:15.557Z,14.45
2017-08-23T18:57:43.158Z,15.87
2017-08-23T19:00:10.701Z,18.70
2017-08-23T19:02:38.249Z,17.60
2017-08-23T19:05:05.817Z,17.27
2017-08-23T19:07:33.429Z,16.33
2017-08-23T19:10:00.973Z,18.47
2017-08-23T19:12:28.561Z,12.70
2017-08-23T19:14:56.122Z,12.90
2017-08-23T19:17:23.677Z,17.80
2017-08-23T19:19:52.099Z,21.63
2017-08-23T19:22:20.252Z,18.98
2017-08-23T19:24:47.985Z,15.67
2017-08-23T19:27:16.513Z,13.00
2017-08-23T19:29:44.064Z,17.70
2017-08-23T19:32:11.609Z,17.60
2017-08-23T19:34:39.313Z,18.13
2017-08-23T19:37:06.936Z,14.40
2017-08-23T19:39:35.246Z,16.62
2017-08-23T19:42:02.841Z,15.93
2017-08-23T19:44:30.393Z,17.30
2017-08-23T19:46:57.937Z,20.30
2017-08-23T19:49:25.603Z,14.90
2017-08-23T19:51:53.166Z,15.73
2017-08-23T19:54:20.709Z,15.17
2017-08-23T19:56:48.277Z,15.03
2017-08-23T19:59:17.191Z,22.80
2017-08-23T20:01:44.738Z,14.53
2017-08-23T20:04:12.341Z,13.87
2017-08-23T20:06:40.012Z,16.13
2017-08-23T20:09:07.557Z,21.77
2017-08-23T20:11:35.133Z,15.57
2017-08-23T20:14:02.678Z,14.97
2017-08-23T20:16:30.246Z,15.63
2017-08-23T20:18:57.834Z,15.63
2017-08-23T20:21:25.406Z,15.63
2017-08-23T20:23:53.807Z,15.80
2017-08-23T20:26:21.421Z,21.93
2017-08-23T20:28:49.021Z,14.77
2017-08-23T20:31:16.637Z,17.27
2017-08-23T20:33:44.208Z,13.33
2017-08-23T20:36:11.753Z,16.17
2017-08-23T20:38:39.296Z,14.27
2017-08-23T20:41:06.865Z,17.83
2017-08-23T20:43:34.445Z,23.53
2017-08-23T20:46:02.126Z,15.47
2017-08-23T20:48:29.934Z,22.43
2017-08-23T20:50:57.496Z,19.17
2017-08-23T20:53:25.038Z,17.43
2017-08-23T20:55:52.683Z,15.10
2017-08-23T20:58:20.262Z,19.00
2017-08-23T21:00:47.891Z,19.23
2017-08-23T21:03:15.525Z,16.30
2017-08-23T21:05:43.081Z,15.13
2017-08-23T21:08:10.632Z,16.53
2017-08-23T21:10:38.410Z,20.83
2017-08-23T21:13:05.969Z,16.63
2017-08-23T21:15:33.600Z,18.40
2017-08-23T21:18:01.185Z,15.43
2017-08-23T21:20:28.797Z,17.50
2017-08-23T21:22:56.390Z,18.27
2017-08-23T21:25:24.248Z,15.47
2017-08-23T21:27:51.788Z,15.77
2017-08-23T21:30:19.328Z,19.60
2017-08-23T21:32:46.945Z,15.33
2017-08-23T21:35:20.481Z,19.10
2017-08-23T21:40:16.357Z,16.53
2017-08-23T21:42:45.672Z,13.63
2017-08-23T21:45:25.225Z,18.12
2017-08-23T21:56:02.953Z,15.87
2017-08-23T21:58:30.530Z,17.98
2017-08-23T22:00:59.100Z,17.43
2017-08-23T22:03:27.020Z,14.43
2017-08-23T22:05:54.709Z,15.35
2017-08-23T22:08:22.630Z,17.00
2017-08-23T22:10:50.359Z,14.47
2017-08-23T22:13:18.042Z,15.40
2017-08-23T22:15:47.758Z,22.83
2017-08-23T22:18:17.479Z,21.37
2017-08-23T22:20:45.895Z,15.87
2017-08-23T22:23:19.330Z,16.00
2017-08-23T22:25:48.320Z,14.93
2017-08-23T22:28:20.702Z,19.00
2017-08-23T22:30:49.220Z,15.73
2017-08-23T22:33:17.293Z,13.40
2017-08-23T22:35:46.187Z,15.30
2017-08-23T22:38:25.656Z,15.60
2017-08-23T22:44:39.963Z,17.00
2017-08-23T22:47:08.247Z,15.10
2017-08-23T22:49:37.647Z,14.83
2017-08-23T22:52:06.249Z,15.40
2017-08-23T22:54:33.954Z,16.90
2017-08-23T22:57:02.377Z,16.20
2017-08-23T22:59:30.133Z,17.27
2017-08-23T23:01:58.703Z,16.03
2017-08-23T23:04:26.425Z,16.30
2017-08-23T23:06:54.383Z,16.67
2017-08-23T23:09:23.138Z,19.73
2017-08-23T23:11:53.228Z,18.40
2017-08-23T23:14:21.328Z,16.36
2017-08-23T23:16:49.326Z,15.40
2017-08-23T23:19:17.676Z,16.58
2017-08-23T23:21:46.573Z,14.83
2017-08-23T23:24:30.643Z,15.20
2017-08-23T23:30:23.462Z,19.37
2017-08-23T23:32:52.994Z,16.83
2017-08-23T23:35:22.502Z,15.04
2017-08-23T23:40:25.365Z,15.20
2017-08-23T23:42:53.051Z,17.60
2017-08-23T23:45:20.593Z,18.00
2017-08-23T23:47:48.138Z,14.57
2017-08-23T23:50:18.588Z,14.60
2017-08-23T23:52:46.560Z,15.40
2017-08-23T23:55:25.265Z,15.00
